sensor_id;sensor_type;location;lat;lon;timestamp;temperature;humidity
31369;DHT22;18004;48.416;10.066;2024-01-06T00:02:16;5.40;99.90
31369;DHT22;18004;48.416;10.066;2024-01-06T00:04:42;5.40;99.90
31369;DHT22;18004;48.416;10.066;2024-01-06T00:07:08;5.40;99.90
31369;DHT22;18004;48.416;10.066;2024-01-06T00:09:34;5.40;99.90
31369;DHT22;18004;48.416;10.066;2024-01-06T00:12:00;5.50;99.90
31369;DHT22;18004;48.416;10.066;2024-01-06T00:14:27;5.50;99.90
31369;DHT22;18004;48.416;10.066;2024-01-06T00:16:53;5.50;99.90
31369;DHT22;18004;48.416;10.066;2024-01-06T00:19:19;5.40;99.90
31369;DHT22;18004;48.416;10.066;2024-01-06T00:21:44;5.50;99.90
31369;DHT22;18004;48.416;10.066;2024-01-06T00:24:10;5.50;99.90
31369;DHT22;18004;48.416;10.066;2024-01-06T00:26:36;5.50;99.90
31369;DHT22;18004;48.416;10.066;2024-01-06T00:29:02;5.50;99.90
31369;DHT22;18004;48.416;10.066;2024-01-06T00:31:27;5.50;99.90
31369;DHT22;18004;48.416;10.066;2024-01-06T00:33:53;5.50;99.90
31369;DHT22;18004;48.416;10.066;2024-01-06T00:36:19;5.50;99.90
31369;DHT22;18004;48.416;10.066;2024-01-06T00:38:45;5.50;99.90
31369;DHT22;18004;48.416;10.066;2024-01-06T00:41:10;5.50;99.90
31369;DHT22;18004;48.416;10.066;2024-01-06T00:43:36;5.50;99.90
31369;DHT22;18004;48.416;10.066;2024-01-06T00:46:02;5.50;99.90
31369;DHT22;18004;48.416;10.066;2024-01-06T00:48:28;5.40;99.90
31369;DHT22;18004;48.416;10.066;2024-01-06T00:50:54;5.40;99.90
31369;DHT22;18004;48.416;10.066;2024-01-06T00:53:21;5.30;99.90
31369;DHT22;18004;48.416;10.066;2024-01-06T00:55:47;5.10;99.90
31369;DHT22;18004;48.416;10.066;2024-01-06T00:58:13;5.10;99.90
31369;DHT22;18004;48.416;10.066;2024-01-06T01:00:38;5.10;99.90
31369;DHT22;18004;48.416;10.066;2024-01-06T01:03:06;5.00;99.90
31369;DHT22;18004;48.416;10.066;2024-01-06T01:05:32;5.00;99.90
31369;DHT22;18004;48.416;10.066;2024-01-06T01:07:57;5.00;99.90
31369;DHT22;18004;48.416;10.066;2024-01-06T01:10:23;5.00;99.90
31369;DHT22;18004;48.416;10.066;2024-01-06T01:12:49;5.00;99.90
31369;DHT22;18004;48.416;10.066;2024-01-06T01:15:14;4.90;99.90
31369;DHT22;18004;48.416;10.066;2024-01-06T01:17:40;5.00;99.90
31369;DHT22;18004;48.416;10.066;2024-01-06T01:20:07;5.00;99.90
31369;DHT22;18004;48.416;10.066;2024-01-06T01:22:33;5.00;99.90
31369;DHT22;18004;48.416;10.066;2024-01-06T01:24:58;5.00;99.90
31369;DHT22;18004;48.416;10.066;2024-01-06T01:27:26;5.00;99.90
31369;DHT22;18004;48.416;10.066;2024-01-06T01:29:51;5.00;99.90
31369;DHT22;18004;48.416;10.066;2024-01-06T01:32:18;5.00;99.90
31369;DHT22;18004;48.416;10.066;2024-01-06T01:34:44;5.00;99.90
31369;DHT22;18004;48.416;10.066;2024-01-06T01:37:10;5.10;99.90
31369;DHT22;18004;48.416;10.066;2024-01-06T01:39:35;5.10;99.90
31369;DHT22;18004;48.416;10.066;2024-01-06T01:42:01;5.10;99.90
31369;DHT22;18004;48.416;10.066;2024-01-06T01:44:28;5.20;99.90
31369;DHT22;18004;48.416;10.066;2024-01-06T01:46:53;5.20;99.90
31369;DHT22;18004;48.416;10.066;2024-01-06T01:49:19;5.20;99.90
31369;DHT22;18004;48.416;10.066;2024-01-06T01:51:46;5.20;99.90
31369;DHT22;18004;48.416;10.066;2024-01-06T01:54:12;5.20;99.90
31369;DHT22;18004;48.416;10.066;2024-01-06T01:56:39;5.10;99.90
31369;DHT22;18004;48.416;10.066;2024-01-06T01:59:09;5.10;99.90
31369;DHT22;18004;48.416;10.066;2024-01-06T02:01:36;5.00;99.90
31369;DHT22;18004;48.416;10.066;2024-01-06T02:04:02;5.00;99.90
31369;DHT22;18004;48.416;10.066;2024-01-06T02:06:28;4.90;99.90
31369;DHT22;18004;48.416;10.066;2024-01-06T02:08:54;4.90;99.90
31369;DHT22;18004;48.416;10.066;2024-01-06T02:11:20;4.90;99.90
31369;DHT22;18004;48.416;10.066;2024-01-06T02:13:45;4.90;99.90
31369;DHT22;18004;48.416;10.066;2024-01-06T02:16:11;5.00;99.90
31369;DHT22;18004;48.416;10.066;2024-01-06T02:18:37;5.00;99.90
31369;DHT22;18004;48.416;10.066;2024-01-06T02:21:03;4.90;99.90
31369;DHT22;18004;48.416;10.066;2024-01-06T02:23:29;4.90;99.90
31369;DHT22;18004;48.416;10.066;2024-01-06T02:25:56;4.90;99.90
31369;DHT22;18004;48.416;10.066;2024-01-06T02:28:22;4.90;99.90
31369;DHT22;18004;48.416;10.066;2024-01-06T02:30:48;4.90;99.90
31369;DHT22;18004;48.416;10.066;2024-01-06T02:33:14;4.90;99.90
31369;DHT22;18004;48.416;10.066;2024-01-06T02:35:40;4.90;99.90
31369;DHT22;18004;48.416;10.066;2024-01-06T02:38:06;4.90;99.90
31369;DHT22;18004;48.416;10.066;2024-01-06T02:40:32;4.90;99.90
31369;DHT22;18004;48.416;10.066;2024-01-06T02:42:59;4.90;99.90
31369;DHT22;18004;48.416;10.066;2024-01-06T02:45:24;5.00;99.90
31369;DHT22;18004;48.416;10.066;2024-01-06T02:47:50;5.00;99.90
31369;DHT22;18004;48.416;10.066;2024-01-06T02:50:16;5.00;99.90
31369;DHT22;18004;48.416;10.066;2024-01-06T02:55:09;5.10;99.90
31369;DHT22;18004;48.416;10.066;2024-01-06T02:57:34;5.00;99.90
31369;DHT22;18004;48.416;10.066;2024-01-06T03:00:01;4.90;99.90
31369;DHT22;18004;48.416;10.066;2024-01-06T03:02:27;4.80;99.90
31369;DHT22;18004;48.416;10.066;2024-01-06T03:04:53;4.80;99.90
31369;DHT22;18004;48.416;10.066;2024-01-06T03:07:18;4.80;99.90
31369;DHT22;18004;48.416;10.066;2024-01-06T03:09:44;4.80;99.90
31369;DHT22;18004;48.416;10.066;2024-01-06T03:12:10;4.80;99.90
31369;DHT22;18004;48.416;10.066;2024-01-06T03:14:36;4.90;99.90
31369;DHT22;18004;48.416;10.066;2024-01-06T03:17:02;4.90;99.90
31369;DHT22;18004;48.416;10.066;2024-01-06T03:19:29;4.90;99.90
31369;DHT22;18004;48.416;10.066;2024-01-06T03:21:54;5.00;99.90
31369;DHT22;18004;48.416;10.066;2024-01-06T03:24:24;5.00;99.90
31369;DHT22;18004;48.416;10.066;2024-01-06T03:26:50;5.00;99.90
31369;DHT22;18004;48.416;10.066;2024-01-06T03:29:16;5.00;99.90
31369;DHT22;18004;48.416;10.066;2024-01-06T03:31:43;4.90;99.90
31369;DHT22;18004;48.416;10.066;2024-01-06T03:34:09;4.90;99.90
31369;DHT22;18004;48.416;10.066;2024-01-06T03:36:39;4.80;99.90
31369;DHT22;18004;48.416;10.066;2024-01-06T03:39:06;4.70;99.90
31369;DHT22;18004;48.416;10.066;2024-01-06T03:41:31;4.70;99.90
31369;DHT22;18004;48.416;10.066;2024-01-06T03:43:57;4.60;99.90
31369;DHT22;18004;48.416;10.066;2024-01-06T03:46:23;4.60;99.90
31369;DHT22;18004;48.416;10.066;2024-01-06T03:48:49;4.60;99.90
31369;DHT22;18004;48.416;10.066;2024-01-06T03:51:15;4.70;99.90
31369;DHT22;18004;48.416;10.066;2024-01-06T03:53:41;4.70;99.90
31369;DHT22;18004;48.416;10.066;2024-01-06T03:56:07;4.80;99.90
31369;DHT22;18004;48.416;10.066;2024-01-06T03:58:33;4.80;99.90
31369;DHT22;18004;48.416;10.066;2024-01-06T04:00:59;4.80;99.90
31369;DHT22;18004;48.416;10.066;2024-01-06T04:03:24;4.90;99.90
31369;DHT22;18004;48.416;10.066;2024-01-06T04:05:50;4.80;99.90
31369;DHT22;18004;48.416;10.066;2024-01-06T04:08:16;4.80;99.90
31369;DHT22;18004;48.416;10.066;2024-01-06T04:10:43;4.90;99.90
31369;DHT22;18004;48.416;10.066;2024-01-06T04:13:10;4.80;99.90
31369;DHT22;18004;48.416;10.066;2024-01-06T04:15:35;4.80;99.90
31369;DHT22;18004;48.416;10.066;2024-01-06T04:18:03;4.90;99.90
31369;DHT22;18004;48.416;10.066;2024-01-06T04:20:29;4.90;99.90
31369;DHT22;18004;48.416;10.066;2024-01-06T04:22:55;4.90;99.90
31369;DHT22;18004;48.416;10.066;2024-01-06T04:25:21;4.90;99.90
31369;DHT22;18004;48.416;10.066;2024-01-06T04:27:47;4.90;99.90
31369;DHT22;18004;48.416;10.066;2024-01-06T04:30:14;4.90;99.90
31369;DHT22;18004;48.416;10.066;2024-01-06T04:32:41;4.90;99.90
31369;DHT22;18004;48.416;10.066;2024-01-06T04:35:07;5.00;99.90
31369;DHT22;18004;48.416;10.066;2024-01-06T04:37:33;4.90;99.90
31369;DHT22;18004;48.416;10.066;2024-01-06T04:39:59;5.00;99.90
31369;DHT22;18004;48.416;10.066;2024-01-06T04:42:25;5.00;99.90
31369;DHT22;18004;48.416;10.066;2024-01-06T04:44:50;5.00;99.90
31369;DHT22;18004;48.416;10.066;2024-01-06T04:47:16;5.00;99.90
31369;DHT22;18004;48.416;10.066;2024-01-06T04:49:43;5.00;99.90
31369;DHT22;18004;48.416;10.066;2024-01-06T04:52:10;5.00;99.90
31369;DHT22;18004;48.416;10.066;2024-01-06T04:54:35;4.90;99.90
31369;DHT22;18004;48.416;10.066;2024-01-06T04:57:01;4.90;99.90
31369;DHT22;18004;48.416;10.066;2024-01-06T04:59:27;4.90;99.90
31369;DHT22;18004;48.416;10.066;2024-01-06T05:01:53;4.90;99.90
31369;DHT22;18004;48.416;10.066;2024-01-06T05:04:19;4.90;99.90
31369;DHT22;18004;48.416;10.066;2024-01-06T05:06:45;4.90;99.90
31369;DHT22;18004;48.416;10.066;2024-01-06T05:09:11;4.90;99.90
31369;DHT22;18004;48.416;10.066;2024-01-06T05:11:36;4.90;99.90
31369;DHT22;18004;48.416;10.066;2024-01-06T05:14:02;4.90;99.90
31369;DHT22;18004;48.416;10.066;2024-01-06T05:16:28;4.90;99.90
31369;DHT22;18004;48.416;10.066;2024-01-06T05:18:54;4.80;99.90
31369;DHT22;18004;48.416;10.066;2024-01-06T05:21:20;4.80;99.90
31369;DHT22;18004;48.416;10.066;2024-01-06T05:23:46;4.80;99.90
31369;DHT22;18004;48.416;10.066;2024-01-06T05:26:11;4.80;99.90
31369;DHT22;18004;48.416;10.066;2024-01-06T05:28:39;4.80;99.90
31369;DHT22;18004;48.416;10.066;2024-01-06T05:31:06;4.80;99.90
31369;DHT22;18004;48.416;10.066;2024-01-06T05:33:31;4.80;99.90
31369;DHT22;18004;48.416;10.066;2024-01-06T05:35:57;4.80;99.90
31369;DHT22;18004;48.416;10.066;2024-01-06T05:38:23;4.80;99.90
31369;DHT22;18004;48.416;10.066;2024-01-06T05:40:49;4.70;99.90
31369;DHT22;18004;48.416;10.066;2024-01-06T05:43:14;4.70;99.90
31369;DHT22;18004;48.416;10.066;2024-01-06T05:45:40;4.70;99.90
31369;DHT22;18004;48.416;10.066;2024-01-06T05:48:09;4.70;99.90
31369;DHT22;18004;48.416;10.066;2024-01-06T05:50:37;4.70;99.90
31369;DHT22;18004;48.416;10.066;2024-01-06T05:53:02;4.70;99.90
31369;DHT22;18004;48.416;10.066;2024-01-06T05:55:28;4.70;99.90
31369;DHT22;18004;48.416;10.066;2024-01-06T05:57:54;4.70;99.90
31369;DHT22;18004;48.416;10.066;2024-01-06T06:00:20;4.70;99.90
31369;DHT22;18004;48.416;10.066;2024-01-06T06:02:46;4.60;99.90
31369;DHT22;18004;48.416;10.066;2024-01-06T06:05:12;4.60;99.90
31369;DHT22;18004;48.416;10.066;2024-01-06T06:07:39;4.60;99.90
31369;DHT22;18004;48.416;10.066;2024-01-06T06:10:07;4.60;99.90
31369;DHT22;18004;48.416;10.066;2024-01-06T06:12:33;4.60;99.90
31369;DHT22;18004;48.416;10.066;2024-01-06T06:14:58;4.60;99.90
31369;DHT22;18004;48.416;10.066;2024-01-06T06:17:24;4.60;99.90
31369;DHT22;18004;48.416;10.066;2024-01-06T06:19:51;4.60;99.90
31369;DHT22;18004;48.416;10.066;2024-01-06T06:22:17;4.60;99.90
31369;DHT22;18004;48.416;10.066;2024-01-06T06:24:42;4.50;99.90
31369;DHT22;18004;48.416;10.066;2024-01-06T06:27:08;4.50;99.90
31369;DHT22;18004;48.416;10.066;2024-01-06T06:29:34;4.50;99.90
31369;DHT22;18004;48.416;10.066;2024-01-06T06:32:00;4.50;99.90
31369;DHT22;18004;48.416;10.066;2024-01-06T06:34:25;4.50;99.90
31369;DHT22;18004;48.416;10.066;2024-01-06T06:36:51;4.50;99.90
31369;DHT22;18004;48.416;10.066;2024-01-06T06:39:17;4.40;99.90
31369;DHT22;18004;48.416;10.066;2024-01-06T06:41:44;4.40;99.90
31369;DHT22;18004;48.416;10.066;2024-01-06T06:44:09;4.40;99.90
31369;DHT22;18004;48.416;10.066;2024-01-06T06:46:36;4.40;99.90
31369;DHT22;18004;48.416;10.066;2024-01-06T06:49:02;4.40;99.90
31369;DHT22;18004;48.416;10.066;2024-01-06T06:51:28;4.40;99.90
31369;DHT22;18004;48.416;10.066;2024-01-06T06:53:55;4.40;99.90
31369;DHT22;18004;48.416;10.066;2024-01-06T06:56:22;4.40;99.90
31369;DHT22;18004;48.416;10.066;2024-01-06T06:58:48;4.40;99.90
31369;DHT22;18004;48.416;10.066;2024-01-06T07:01:15;4.40;99.90
31369;DHT22;18004;48.416;10.066;2024-01-06T07:03:41;4.40;99.90
31369;DHT22;18004;48.416;10.066;2024-01-06T07:06:07;4.40;99.90
31369;DHT22;18004;48.416;10.066;2024-01-06T07:08:32;4.40;99.90
31369;DHT22;18004;48.416;10.066;2024-01-06T07:10:58;4.50;99.90
31369;DHT22;18004;48.416;10.066;2024-01-06T07:13:24;4.50;99.90
31369;DHT22;18004;48.416;10.066;2024-01-06T07:15:49;4.40;99.90
31369;DHT22;18004;48.416;10.066;2024-01-06T07:18:15;4.50;99.90
31369;DHT22;18004;48.416;10.066;2024-01-06T07:20:41;4.50;99.90
31369;DHT22;18004;48.416;10.066;2024-01-06T07:23:07;4.50;99.90
31369;DHT22;18004;48.416;10.066;2024-01-06T07:25:33;4.50;99.90
31369;DHT22;18004;48.416;10.066;2024-01-06T07:27:58;4.50;99.90
31369;DHT22;18004;48.416;10.066;2024-01-06T07:30:24;4.50;99.90
31369;DHT22;18004;48.416;10.066;2024-01-06T07:32:50;4.40;99.90
31369;DHT22;18004;48.416;10.066;2024-01-06T07:35:17;4.40;99.90
31369;DHT22;18004;48.416;10.066;2024-01-06T07:37:43;4.40;99.90
31369;DHT22;18004;48.416;10.066;2024-01-06T07:40:09;4.40;99.90
31369;DHT22;18004;48.416;10.066;2024-01-06T07:42:35;4.40;99.90
31369;DHT22;18004;48.416;10.066;2024-01-06T07:45:01;4.40;99.90
31369;DHT22;18004;48.416;10.066;2024-01-06T07:47:27;4.40;99.90
31369;DHT22;18004;48.416;10.066;2024-01-06T07:49:53;4.40;99.90
31369;DHT22;18004;48.416;10.066;2024-01-06T07:52:20;4.40;99.90
31369;DHT22;18004;48.416;10.066;2024-01-06T07:54:46;4.40;99.90
31369;DHT22;18004;48.416;10.066;2024-01-06T07:57:11;4.40;99.90
31369;DHT22;18004;48.416;10.066;2024-01-06T07:59:38;4.40;99.90
31369;DHT22;18004;48.416;10.066;2024-01-06T08:02:04;4.40;99.90
31369;DHT22;18004;48.416;10.066;2024-01-06T08:04:30;4.40;99.90
31369;DHT22;18004;48.416;10.066;2024-01-06T08:06:55;4.30;99.90
31369;DHT22;18004;48.416;10.066;2024-01-06T08:09:21;4.40;99.90
31369;DHT22;18004;48.416;10.066;2024-01-06T08:11:49;4.40;99.90
31369;DHT22;18004;48.416;10.066;2024-01-06T08:14:15;4.40;99.90
31369;DHT22;18004;48.416;10.066;2024-01-06T08:16:43;4.40;99.90
31369;DHT22;18004;48.416;10.066;2024-01-06T08:19:09;4.40;99.90
31369;DHT22;18004;48.416;10.066;2024-01-06T08:21:35;4.40;99.90
31369;DHT22;18004;48.416;10.066;2024-01-06T08:24:01;4.40;99.90
31369;DHT22;18004;48.416;10.066;2024-01-06T08:26:27;4.40;99.90
31369;DHT22;18004;48.416;10.066;2024-01-06T08:28:53;4.40;99.90
31369;DHT22;18004;48.416;10.066;2024-01-06T08:31:19;4.40;99.90
31369;DHT22;18004;48.416;10.066;2024-01-06T08:33:45;4.40;99.90
31369;DHT22;18004;48.416;10.066;2024-01-06T08:36:11;4.40;99.90
31369;DHT22;18004;48.416;10.066;2024-01-06T08:38:37;4.40;99.90
31369;DHT22;18004;48.416;10.066;2024-01-06T08:41:03;4.40;99.90
31369;DHT22;18004;48.416;10.066;2024-01-06T08:43:29;4.40;99.90
31369;DHT22;18004;48.416;10.066;2024-01-06T08:45:54;4.50;99.90
31369;DHT22;18004;48.416;10.066;2024-01-06T08:48:20;4.50;99.90
31369;DHT22;18004;48.416;10.066;2024-01-06T08:50:47;4.50;99.90
31369;DHT22;18004;48.416;10.066;2024-01-06T08:53:13;4.50;99.90
31369;DHT22;18004;48.416;10.066;2024-01-06T08:55:39;4.40;99.90
31369;DHT22;18004;48.416;10.066;2024-01-06T08:58:04;4.40;99.90
31369;DHT22;18004;48.416;10.066;2024-01-06T09:00:31;4.40;99.90
31369;DHT22;18004;48.416;10.066;2024-01-06T09:02:56;4.40;99.90
31369;DHT22;18004;48.416;10.066;2024-01-06T09:05:22;4.40;99.90
31369;DHT22;18004;48.416;10.066;2024-01-06T09:07:48;4.50;99.90
31369;DHT22;18004;48.416;10.066;2024-01-06T09:10:18;4.40;99.90
31369;DHT22;18004;48.416;10.066;2024-01-06T09:12:44;4.40;99.90
31369;DHT22;18004;48.416;10.066;2024-01-06T09:15:10;4.40;99.90
31369;DHT22;18004;48.416;10.066;2024-01-06T09:17:36;4.40;99.90
31369;DHT22;18004;48.416;10.066;2024-01-06T09:20:02;4.40;99.90
31369;DHT22;18004;48.416;10.066;2024-01-06T09:22:28;4.40;99.90
31369;DHT22;18004;48.416;10.066;2024-01-06T09:24:54;4.40;99.90
31369;DHT22;18004;48.416;10.066;2024-01-06T09:27:20;4.40;99.90
31369;DHT22;18004;48.416;10.066;2024-01-06T09:29:45;4.40;99.90
31369;DHT22;18004;48.416;10.066;2024-01-06T09:32:11;4.50;99.90
31369;DHT22;18004;48.416;10.066;2024-01-06T09:34:38;4.50;99.90
31369;DHT22;18004;48.416;10.066;2024-01-06T09:37:04;4.50;99.90
31369;DHT22;18004;48.416;10.066;2024-01-06T09:39:30;4.50;99.90
31369;DHT22;18004;48.416;10.066;2024-01-06T09:41:59;4.50;99.90
31369;DHT22;18004;48.416;10.066;2024-01-06T09:44:25;4.50;99.90
31369;DHT22;18004;48.416;10.066;2024-01-06T09:46:50;4.50;99.90
31369;DHT22;18004;48.416;10.066;2024-01-06T09:49:22;4.40;99.90
31369;DHT22;18004;48.416;10.066;2024-01-06T09:51:49;4.40;99.90
31369;DHT22;18004;48.416;10.066;2024-01-06T09:54:23;4.40;99.90
31369;DHT22;18004;48.416;10.066;2024-01-06T09:56:50;4.40;99.90
31369;DHT22;18004;48.416;10.066;2024-01-06T09:59:16;4.50;99.90
31369;DHT22;18004;48.416;10.066;2024-01-06T10:01:42;4.50;99.90
31369;DHT22;18004;48.416;10.066;2024-01-06T10:04:07;4.50;99.90
31369;DHT22;18004;48.416;10.066;2024-01-06T10:06:33;4.50;99.90
31369;DHT22;18004;48.416;10.066;2024-01-06T10:08:59;4.50;99.90
31369;DHT22;18004;48.416;10.066;2024-01-06T10:11:25;4.50;99.90
31369;DHT22;18004;48.416;10.066;2024-01-06T10:13:52;4.50;99.90
31369;DHT22;18004;48.416;10.066;2024-01-06T10:16:19;4.50;99.90
31369;DHT22;18004;48.416;10.066;2024-01-06T10:18:45;4.50;99.90
31369;DHT22;18004;48.416;10.066;2024-01-06T10:21:12;4.60;99.90
31369;DHT22;18004;48.416;10.066;2024-01-06T10:23:39;4.60;99.90
31369;DHT22;18004;48.416;10.066;2024-01-06T10:26:05;4.60;99.90
31369;DHT22;18004;48.416;10.066;2024-01-06T10:28:30;4.60;99.90
31369;DHT22;18004;48.416;10.066;2024-01-06T10:30:57;4.60;99.90
31369;DHT22;18004;48.416;10.066;2024-01-06T10:33:24;4.60;99.90
31369;DHT22;18004;48.416;10.066;2024-01-06T10:35:50;4.60;99.90
31369;DHT22;18004;48.416;10.066;2024-01-06T10:38:18;4.60;99.90
31369;DHT22;18004;48.416;10.066;2024-01-06T10:40:57;4.60;99.90
31369;DHT22;18004;48.416;10.066;2024-01-06T10:43:28;4.60;99.90
31369;DHT22;18004;48.416;10.066;2024-01-06T10:45:56;4.70;99.90
31369;DHT22;18004;48.416;10.066;2024-01-06T10:48:25;4.70;99.90
31369;DHT22;18004;48.416;10.066;2024-01-06T10:50:51;4.70;99.90
31369;DHT22;18004;48.416;10.066;2024-01-06T10:53:20;4.70;99.90
31369;DHT22;18004;48.416;10.066;2024-01-06T10:55:46;4.70;99.90
31369;DHT22;18004;48.416;10.066;2024-01-06T10:58:14;4.70;99.90
31369;DHT22;18004;48.416;10.066;2024-01-06T11:00:42;4.70;99.90
31369;DHT22;18004;48.416;10.066;2024-01-06T11:03:09;4.70;99.90
31369;DHT22;18004;48.416;10.066;2024-01-06T11:05:36;4.70;99.90
31369;DHT22;18004;48.416;10.066;2024-01-06T11:08:04;4.70;99.90
31369;DHT22;18004;48.416;10.066;2024-01-06T11:10:31;4.70;99.90
31369;DHT22;18004;48.416;10.066;2024-01-06T11:13:21;4.70;99.90
31369;DHT22;18004;48.416;10.066;2024-01-06T11:15:50;4.70;99.90
31369;DHT22;18004;48.416;10.066;2024-01-06T11:18:36;4.70;99.90
31369;DHT22;18004;48.416;10.066;2024-01-06T11:21:20;4.70;99.90
31369;DHT22;18004;48.416;10.066;2024-01-06T11:24:23;4.80;99.90
31369;DHT22;18004;48.416;10.066;2024-01-06T11:26:56;4.80;99.90
31369;DHT22;18004;48.416;10.066;2024-01-06T11:29:22;4.80;99.90
31369;DHT22;18004;48.416;10.066;2024-01-06T11:32:25;4.70;99.90
31369;DHT22;18004;48.416;10.066;2024-01-06T11:34:52;4.80;99.90
31369;DHT22;18004;48.416;10.066;2024-01-06T11:37:23;4.70;99.90
31369;DHT22;18004;48.416;10.066;2024-01-06T11:39:50;4.70;99.90
31369;DHT22;18004;48.416;10.066;2024-01-06T11:42:16;4.70;99.90
31369;DHT22;18004;48.416;10.066;2024-01-06T11:44:50;4.70;99.90
31369;DHT22;18004;48.416;10.066;2024-01-06T11:47:17;4.80;99.90
31369;DHT22;18004;48.416;10.066;2024-01-06T11:49:46;4.80;99.90
31369;DHT22;18004;48.416;10.066;2024-01-06T11:52:13;4.80;99.90
31369;DHT22;18004;48.416;10.066;2024-01-06T11:54:40;4.80;99.90
31369;DHT22;18004;48.416;10.066;2024-01-06T11:57:07;4.80;99.90
31369;DHT22;18004;48.416;10.066;2024-01-06T11:59:33;4.90;99.90
31369;DHT22;18004;48.416;10.066;2024-01-06T12:01:58;4.80;99.90
31369;DHT22;18004;48.416;10.066;2024-01-06T12:04:24;4.90;99.90
31369;DHT22;18004;48.416;10.066;2024-01-06T12:06:52;4.70;99.90
31369;DHT22;18004;48.416;10.066;2024-01-06T12:09:20;4.80;99.90
31369;DHT22;18004;48.416;10.066;2024-01-06T12:11:45;4.80;99.90
31369;DHT22;18004;48.416;10.066;2024-01-06T12:14:13;4.90;99.90
31369;DHT22;18004;48.416;10.066;2024-01-06T12:16:38;4.90;99.90
31369;DHT22;18004;48.416;10.066;2024-01-06T12:19:04;4.90;99.90
31369;DHT22;18004;48.416;10.066;2024-01-06T12:21:30;4.90;99.90
31369;DHT22;18004;48.416;10.066;2024-01-06T12:24:19;4.90;99.90
31369;DHT22;18004;48.416;10.066;2024-01-06T12:26:46;4.90;99.90
31369;DHT22;18004;48.416;10.066;2024-01-06T12:29:13;4.90;99.90
31369;DHT22;18004;48.416;10.066;2024-01-06T12:31:43;5.00;99.90
31369;DHT22;18004;48.416;10.066;2024-01-06T12:34:10;5.00;99.90
31369;DHT22;18004;48.416;10.066;2024-01-06T12:36:37;4.90;99.90
31369;DHT22;18004;48.416;10.066;2024-01-06T12:39:04;4.90;99.90
31369;DHT22;18004;48.416;10.066;2024-01-06T12:41:30;5.00;99.90
31369;DHT22;18004;48.416;10.066;2024-01-06T12:43:59;5.00;99.90
31369;DHT22;18004;48.416;10.066;2024-01-06T12:46:26;5.00;99.90
31369;DHT22;18004;48.416;10.066;2024-01-06T12:48:52;5.00;99.90
31369;DHT22;18004;48.416;10.066;2024-01-06T12:51:18;5.00;99.90
31369;DHT22;18004;48.416;10.066;2024-01-06T12:53:44;5.00;99.90
31369;DHT22;18004;48.416;10.066;2024-01-06T12:56:10;5.00;99.90
31369;DHT22;18004;48.416;10.066;2024-01-06T12:58:35;5.00;99.90
31369;DHT22;18004;48.416;10.066;2024-01-06T13:01:01;5.00;99.90
31369;DHT22;18004;48.416;10.066;2024-01-06T13:03:28;4.90;99.90
31369;DHT22;18004;48.416;10.066;2024-01-06T13:05:54;4.90;99.90
31369;DHT22;18004;48.416;10.066;2024-01-06T13:08:20;4.90;99.90
31369;DHT22;18004;48.416;10.066;2024-01-06T13:10:46;4.90;99.90
31369;DHT22;18004;48.416;10.066;2024-01-06T13:13:12;4.90;99.90
31369;DHT22;18004;48.416;10.066;2024-01-06T13:15:38;5.00;99.90
31369;DHT22;18004;48.416;10.066;2024-01-06T13:18:04;5.00;99.90
31369;DHT22;18004;48.416;10.066;2024-01-06T13:20:30;5.00;99.90
31369;DHT22;18004;48.416;10.066;2024-01-06T13:22:56;5.10;99.90
31369;DHT22;18004;48.416;10.066;2024-01-06T13:25:21;5.20;99.90
31369;DHT22;18004;48.416;10.066;2024-01-06T13:27:47;5.20;99.90
31369;DHT22;18004;48.416;10.066;2024-01-06T13:30:13;5.20;99.90
31369;DHT22;18004;48.416;10.066;2024-01-06T13:32:40;5.20;99.90
31369;DHT22;18004;48.416;10.066;2024-01-06T13:35:06;5.20;99.90
31369;DHT22;18004;48.416;10.066;2024-01-06T13:37:33;5.20;99.90
31369;DHT22;18004;48.416;10.066;2024-01-06T13:39:58;5.10;99.90
31369;DHT22;18004;48.416;10.066;2024-01-06T13:42:24;5.10;99.90
31369;DHT22;18004;48.416;10.066;2024-01-06T13:44:50;5.10;99.90
31369;DHT22;18004;48.416;10.066;2024-01-06T13:47:16;5.10;99.90
31369;DHT22;18004;48.416;10.066;2024-01-06T13:49:42;5.10;99.90
31369;DHT22;18004;48.416;10.066;2024-01-06T13:52:08;5.10;99.90
31369;DHT22;18004;48.416;10.066;2024-01-06T13:54:35;5.00;99.90
31369;DHT22;18004;48.416;10.066;2024-01-06T13:57:00;4.90;99.90
31369;DHT22;18004;48.416;10.066;2024-01-06T13:59:26;5.00;99.90
31369;DHT22;18004;48.416;10.066;2024-01-06T14:01:53;4.90;99.90
31369;DHT22;18004;48.416;10.066;2024-01-06T14:04:19;4.90;99.90
31369;DHT22;18004;48.416;10.066;2024-01-06T14:06:45;4.90;99.90
31369;DHT22;18004;48.416;10.066;2024-01-06T14:09:13;4.90;99.90
31369;DHT22;18004;48.416;10.066;2024-01-06T14:11:39;4.80;99.90
31369;DHT22;18004;48.416;10.066;2024-01-06T14:14:05;4.80;99.90
31369;DHT22;18004;48.416;10.066;2024-01-06T14:16:31;4.80;99.90
31369;DHT22;18004;48.416;10.066;2024-01-06T14:18:56;4.90;99.90
31369;DHT22;18004;48.416;10.066;2024-01-06T14:21:23;4.90;99.90
31369;DHT22;18004;48.416;10.066;2024-01-06T14:23:49;4.80;99.90
31369;DHT22;18004;48.416;10.066;2024-01-06T14:26:16;4.80;99.90
31369;DHT22;18004;48.416;10.066;2024-01-06T14:28:42;4.80;99.90
31369;DHT22;18004;48.416;10.066;2024-01-06T14:31:08;4.80;99.90
31369;DHT22;18004;48.416;10.066;2024-01-06T14:33:36;4.80;99.90
31369;DHT22;18004;48.416;10.066;2024-01-06T14:36:02;4.80;99.90
31369;DHT22;18004;48.416;10.066;2024-01-06T14:38:28;4.80;99.90
31369;DHT22;18004;48.416;10.066;2024-01-06T14:40:54;4.70;99.90
31369;DHT22;18004;48.416;10.066;2024-01-06T14:43:20;4.70;99.90
31369;DHT22;18004;48.416;10.066;2024-01-06T14:45:47;4.70;99.90
31369;DHT22;18004;48.416;10.066;2024-01-06T14:48:13;4.70;99.90
31369;DHT22;18004;48.416;10.066;2024-01-06T14:50:39;4.70;99.90
31369;DHT22;18004;48.416;10.066;2024-01-06T14:53:04;4.70;99.90
31369;DHT22;18004;48.416;10.066;2024-01-06T14:55:32;4.70;99.90
31369;DHT22;18004;48.416;10.066;2024-01-06T14:57:57;4.70;99.90
31369;DHT22;18004;48.416;10.066;2024-01-06T15:00:23;4.70;99.90
31369;DHT22;18004;48.416;10.066;2024-01-06T15:02:49;4.70;99.90
31369;DHT22;18004;48.416;10.066;2024-01-06T15:05:15;4.70;99.90
31369;DHT22;18004;48.416;10.066;2024-01-06T15:07:41;4.60;99.90
31369;DHT22;18004;48.416;10.066;2024-01-06T15:10:07;4.60;99.90
31369;DHT22;18004;48.416;10.066;2024-01-06T15:12:35;4.60;99.90
31369;DHT22;18004;48.416;10.066;2024-01-06T15:15:01;4.60;99.90
31369;DHT22;18004;48.416;10.066;2024-01-06T15:17:26;4.60;99.90
31369;DHT22;18004;48.416;10.066;2024-01-06T15:19:52;4.60;99.90
31369;DHT22;18004;48.416;10.066;2024-01-06T15:22:18;4.60;99.90
31369;DHT22;18004;48.416;10.066;2024-01-06T15:24:44;4.60;99.90
31369;DHT22;18004;48.416;10.066;2024-01-06T15:27:12;4.50;99.90
31369;DHT22;18004;48.416;10.066;2024-01-06T15:29:38;4.50;99.90